sensor_id;sensor_type;location;lat;lon;timestamp;P1;durP1;ratioP1;P2;durP2;ratioP2
26686;SDS011;14298;50.900;4.648;2023-10-31T00:00:13;4.87;;;4.33;;
26686;SDS011;14298;50.900;4.648;2023-10-31T00:02:41;9.07;;;4.57;;
26686;SDS011;14298;50.900;4.648;2023-10-31T00:05:09;4.70;;;4.27;;
26686;SDS011;14298;50.900;4.648;2023-10-31T00:07:37;5.97;;;4.63;;
26686;SDS011;14298;50.900;4.648;2023-10-31T00:10:05;5.70;;;4.90;;
26686;SDS011;14298;50.900;4.648;2023-10-31T00:12:33;4.37;;;3.87;;
26686;SDS011;14298;50.900;4.648;2023-10-31T00:15:01;4.23;;;3.83;;
26686;SDS011;14298;50.900;4.648;2023-10-31T00:17:29;4.77;;;3.80;;
26686;SDS011;14298;50.900;4.648;2023-10-31T00:19:57;6.30;;;5.03;;
26686;SDS011;14298;50.900;4.648;2023-10-31T00:22:25;6.23;;;4.53;;
26686;SDS011;14298;50.900;4.648;2023-10-31T00:24:53;5.20;;;3.93;;
26686;SDS011;14298;50.900;4.648;2023-10-31T00:27:21;6.73;;;3.53;;
26686;SDS011;14298;50.900;4.648;2023-10-31T00:29:49;4.40;;;4.00;;
26686;SDS011;14298;50.900;4.648;2023-10-31T00:32:17;3.37;;;3.07;;
26686;SDS011;14298;50.900;4.648;2023-10-31T00:34:45;4.50;;;4.00;;
26686;SDS011;14298;50.900;4.648;2023-10-31T00:37:13;11.13;;;3.90;;
26686;SDS011;14298;50.900;4.648;2023-10-31T00:39:41;4.43;;;3.87;;
26686;SDS011;14298;50.900;4.648;2023-10-31T00:42:09;7.57;;;4.67;;
26686;SDS011;14298;50.900;4.648;2023-10-31T00:44:37;4.97;;;3.50;;
26686;SDS011;14298;50.900;4.648;2023-10-31T00:47:05;7.80;;;4.60;;
26686;SDS011;14298;50.900;4.648;2023-10-31T00:49:33;4.77;;;4.03;;
26686;SDS011;14298;50.900;4.648;2023-10-31T00:52:01;4.70;;;4.00;;
26686;SDS011;14298;50.900;4.648;2023-10-31T00:54:29;4.17;;;3.53;;
26686;SDS011;14298;50.900;4.648;2023-10-31T00:56:57;3.93;;;3.63;;
26686;SDS011;14298;50.900;4.648;2023-10-31T00:59:25;9.17;;;3.00;;
26686;SDS011;14298;50.900;4.648;2023-10-31T01:01:53;6.90;;;3.77;;
26686;SDS011;14298;50.900;4.648;2023-10-31T01:04:21;5.97;;;4.60;;
26686;SDS011;14298;50.900;4.648;2023-10-31T01:06:49;5.23;;;4.03;;
26686;SDS011;14298;50.900;4.648;2023-10-31T01:09:17;4.50;;;3.90;;
26686;SDS011;14298;50.900;4.648;2023-10-31T01:11:45;2.77;;;2.60;;
26686;SDS011;14298;50.900;4.648;2023-10-31T01:14:13;5.47;;;3.93;;
26686;SDS011;14298;50.900;4.648;2023-10-31T01:16:41;2.53;;;2.33;;
26686;SDS011;14298;50.900;4.648;2023-10-31T01:19:09;3.27;;;2.23;;
26686;SDS011;14298;50.900;4.648;2023-10-31T01:21:37;3.10;;;2.80;;
26686;SDS011;14298;50.900;4.648;2023-10-31T01:24:05;3.13;;;2.37;;
26686;SDS011;14298;50.900;4.648;2023-10-31T01:26:34;3.40;;;2.83;;
26686;SDS011;14298;50.900;4.648;2023-10-31T01:29:03;4.03;;;2.17;;
26686;SDS011;14298;50.900;4.648;2023-10-31T01:31:31;3.17;;;2.97;;
26686;SDS011;14298;50.900;4.648;2023-10-31T01:34:00;2.97;;;2.67;;
26686;SDS011;14298;50.900;4.648;2023-10-31T01:36:28;3.33;;;3.03;;
26686;SDS011;14298;50.900;4.648;2023-10-31T01:38:56;3.33;;;3.13;;
26686;SDS011;14298;50.900;4.648;2023-10-31T01:41:24;3.40;;;3.03;;
26686;SDS011;14298;50.900;4.648;2023-10-31T01:43:51;2.87;;;2.63;;
26686;SDS011;14298;50.900;4.648;2023-10-31T01:46:19;2.77;;;2.57;;
26686;SDS011;14298;50.900;4.648;2023-10-31T01:48:47;3.87;;;3.50;;
26686;SDS011;14298;50.900;4.648;2023-10-31T01:51:15;4.13;;;3.17;;
26686;SDS011;14298;50.900;4.648;2023-10-31T01:53:43;6.33;;;2.63;;
26686;SDS011;14298;50.900;4.648;2023-10-31T01:56:11;3.73;;;2.73;;
26686;SDS011;14298;50.900;4.648;2023-10-31T01:58:40;5.43;;;4.00;;
26686;SDS011;14298;50.900;4.648;2023-10-31T02:01:10;3.07;;;2.87;;
26686;SDS011;14298;50.900;4.648;2023-10-31T02:03:38;3.13;;;2.83;;
26686;SDS011;14298;50.900;4.648;2023-10-31T02:06:06;5.43;;;3.50;;
26686;SDS011;14298;50.900;4.648;2023-10-31T02:08:34;4.03;;;2.33;;
26686;SDS011;14298;50.900;4.648;2023-10-31T02:11:02;2.67;;;2.27;;
26686;SDS011;14298;50.900;4.648;2023-10-31T02:13:32;4.00;;;2.63;;
26686;SDS011;14298;50.900;4.648;2023-10-31T02:16:00;5.93;;;2.47;;
26686;SDS011;14298;50.900;4.648;2023-10-31T02:18:28;3.07;;;2.77;;
26686;SDS011;14298;50.900;4.648;2023-10-31T02:20:56;2.20;;;2.00;;
26686;SDS011;14298;50.900;4.648;2023-10-31T02:23:24;6.20;;;2.77;;
26686;SDS011;14298;50.900;4.648;2023-10-31T02:25:52;6.53;;;3.40;;
26686;SDS011;14298;50.900;4.648;2023-10-31T02:28:20;2.13;;;1.93;;
26686;SDS011;14298;50.900;4.648;2023-10-31T02:30:48;2.90;;;2.63;;
26686;SDS011;14298;50.900;4.648;2023-10-31T02:33:16;2.10;;;2.00;;
26686;SDS011;14298;50.900;4.648;2023-10-31T02:35:44;2.30;;;2.10;;
26686;SDS011;14298;50.900;4.648;2023-10-31T02:38:12;3.77;;;2.27;;
26686;SDS011;14298;50.900;4.648;2023-10-31T02:40:40;1.90;;;1.80;;
26686;SDS011;14298;50.900;4.648;2023-10-31T02:43:08;3.30;;;3.00;;
26686;SDS011;14298;50.900;4.648;2023-10-31T02:45:36;2.40;;;1.97;;
26686;SDS011;14298;50.900;4.648;2023-10-31T02:48:04;2.33;;;2.13;;
26686;SDS011;14298;50.900;4.648;2023-10-31T02:50:32;3.20;;;2.97;;
26686;SDS011;14298;50.900;4.648;2023-10-31T02:53:00;2.97;;;2.47;;
26686;SDS011;14298;50.900;4.648;2023-10-31T02:55:28;5.50;;;2.77;;
26686;SDS011;14298;50.900;4.648;2023-10-31T02:57:56;2.90;;;2.07;;
26686;SDS011;14298;50.900;4.648;2023-10-31T03:00:24;2.70;;;2.50;;
26686;SDS011;14298;50.900;4.648;2023-10-31T03:02:52;2.30;;;2.20;;
26686;SDS011;14298;50.900;4.648;2023-10-31T03:05:20;4.17;;;3.13;;
26686;SDS011;14298;50.900;4.648;2023-10-31T03:07:48;2.93;;;2.73;;
26686;SDS011;14298;50.900;4.648;2023-10-31T03:10:16;6.10;;;3.47;;
26686;SDS011;14298;50.900;4.648;2023-10-31T03:12:44;3.00;;;2.70;;
26686;SDS011;14298;50.900;4.648;2023-10-31T03:15:12;2.07;;;1.60;;
26686;SDS011;14298;50.900;4.648;2023-10-31T03:17:40;3.53;;;3.23;;
26686;SDS011;14298;50.900;4.648;2023-10-31T03:20:09;4.07;;;2.47;;
26686;SDS011;14298;50.900;4.648;2023-10-31T03:22:37;2.83;;;2.40;;
26686;SDS011;14298;50.900;4.648;2023-10-31T03:25:05;2.50;;;2.30;;
26686;SDS011;14298;50.900;4.648;2023-10-31T03:27:34;2.97;;;2.77;;
26686;SDS011;14298;50.900;4.648;2023-10-31T03:30:02;3.20;;;2.97;;
26686;SDS011;14298;50.900;4.648;2023-10-31T03:32:30;4.70;;;3.03;;
26686;SDS011;14298;50.900;4.648;2023-10-31T03:34:58;2.97;;;2.70;;
26686;SDS011;14298;50.900;4.648;2023-10-31T03:37:26;3.87;;;3.03;;
26686;SDS011;14298;50.900;4.648;2023-10-31T03:39:54;2.60;;;2.13;;
26686;SDS011;14298;50.900;4.648;2023-10-31T03:42:22;4.23;;;2.73;;
26686;SDS011;14298;50.900;4.648;2023-10-31T03:44:50;4.37;;;3.57;;
26686;SDS011;14298;50.900;4.648;2023-10-31T03:47:18;3.90;;;2.93;;
26686;SDS011;14298;50.900;4.648;2023-10-31T03:49:46;3.03;;;2.73;;
26686;SDS011;14298;50.900;4.648;2023-10-31T03:55:01;3.03;;;2.80;;
26686;SDS011;14298;50.900;4.648;2023-10-31T03:57:29;3.80;;;3.43;;
26686;SDS011;14298;50.900;4.648;2023-10-31T03:59:57;3.60;;;3.30;;
26686;SDS011;14298;50.900;4.648;2023-10-31T04:02:25;2.70;;;2.50;;
26686;SDS011;14298;50.900;4.648;2023-10-31T04:04:53;4.97;;;4.47;;
26686;SDS011;14298;50.900;4.648;2023-10-31T04:07:21;4.90;;;3.47;;
26686;SDS011;14298;50.900;4.648;2023-10-31T04:09:49;10.50;;;2.50;;
26686;SDS011;14298;50.900;4.648;2023-10-31T04:12:17;4.30;;;3.27;;
26686;SDS011;14298;50.900;4.648;2023-10-31T04:14:45;3.77;;;3.47;;
26686;SDS011;14298;50.900;4.648;2023-10-31T04:17:13;5.07;;;3.13;;
26686;SDS011;14298;50.900;4.648;2023-10-31T04:19:41;5.43;;;3.23;;
26686;SDS011;14298;50.900;4.648;2023-10-31T04:22:09;3.40;;;3.17;;
26686;SDS011;14298;50.900;4.648;2023-10-31T04:24:36;3.63;;;3.33;;
26686;SDS011;14298;50.900;4.648;2023-10-31T04:27:05;2.23;;;2.13;;
26686;SDS011;14298;50.900;4.648;2023-10-31T04:29:34;4.33;;;3.93;;
26686;SDS011;14298;50.900;4.648;2023-10-31T04:32:02;4.20;;;3.23;;
26686;SDS011;14298;50.900;4.648;2023-10-31T04:34:30;3.23;;;3.00;;
26686;SDS011;14298;50.900;4.648;2023-10-31T04:36:58;3.70;;;3.40;;
26686;SDS011;14298;50.900;4.648;2023-10-31T04:39:26;3.67;;;3.37;;
26686;SDS011;14298;50.900;4.648;2023-10-31T04:41:54;2.93;;;2.73;;
26686;SDS011;14298;50.900;4.648;2023-10-31T04:44:22;4.07;;;3.77;;
26686;SDS011;14298;50.900;4.648;2023-10-31T04:46:50;17.83;;;2.87;;
26686;SDS011;14298;50.900;4.648;2023-10-31T04:49:18;9.33;;;3.60;;
26686;SDS011;14298;50.900;4.648;2023-10-31T04:51:47;3.67;;;3.37;;
26686;SDS011;14298;50.900;4.648;2023-10-31T04:54:16;3.53;;;3.13;;
26686;SDS011;14298;50.900;4.648;2023-10-31T04:56:44;4.23;;;3.73;;
26686;SDS011;14298;50.900;4.648;2023-10-31T04:59:12;3.67;;;3.37;;
26686;SDS011;14298;50.900;4.648;2023-10-31T05:01:40;5.00;;;4.27;;
26686;SDS011;14298;50.900;4.648;2023-10-31T05:04:07;4.33;;;3.93;;
26686;SDS011;14298;50.900;4.648;2023-10-31T05:06:35;4.17;;;3.30;;
26686;SDS011;14298;50.900;4.648;2023-10-31T05:09:03;4.23;;;3.83;;
26686;SDS011;14298;50.900;4.648;2023-10-31T05:11:32;4.03;;;3.73;;
26686;SDS011;14298;50.900;4.648;2023-10-31T05:13:59;4.70;;;4.30;;
26686;SDS011;14298;50.900;4.648;2023-10-31T05:16:27;4.40;;;4.00;;
26686;SDS011;14298;50.900;4.648;2023-10-31T05:18:55;4.73;;;4.33;;
26686;SDS011;14298;50.900;4.648;2023-10-31T05:21:25;5.90;;;4.03;;
26686;SDS011;14298;50.900;4.648;2023-10-31T05:23:53;7.40;;;3.90;;
26686;SDS011;14298;50.900;4.648;2023-10-31T05:26:21;7.43;;;4.13;;
26686;SDS011;14298;50.900;4.648;2023-10-31T05:28:49;3.73;;;3.37;;
26686;SDS011;14298;50.900;4.648;2023-10-31T05:31:17;3.27;;;3.07;;
26686;SDS011;14298;50.900;4.648;2023-10-31T05:33:46;6.23;;;4.30;;
26686;SDS011;14298;50.900;4.648;2023-10-31T05:36:21;15.53;;;4.37;;
26686;SDS011;14298;50.900;4.648;2023-10-31T05:38:49;4.00;;;3.70;;
26686;SDS011;14298;50.900;4.648;2023-10-31T05:41:17;6.10;;;4.67;;
26686;SDS011;14298;50.900;4.648;2023-10-31T05:43:45;5.20;;;4.80;;
26686;SDS011;14298;50.900;4.648;2023-10-31T05:46:13;7.87;;;5.73;;
26686;SDS011;14298;50.900;4.648;2023-10-31T05:48:42;5.43;;;4.93;;
26686;SDS011;14298;50.900;4.648;2023-10-31T05:51:11;5.03;;;4.43;;
26686;SDS011;14298;50.900;4.648;2023-10-31T05:53:41;5.23;;;4.77;;
26686;SDS011;14298;50.900;4.648;2023-10-31T05:56:09;5.40;;;4.70;;
26686;SDS011;14298;50.900;4.648;2023-10-31T05:58:37;5.57;;;4.90;;
26686;SDS011;14298;50.900;4.648;2023-10-31T06:01:06;6.50;;;5.53;;
26686;SDS011;14298;50.900;4.648;2023-10-31T06:03:35;5.73;;;5.23;;
26686;SDS011;14298;50.900;4.648;2023-10-31T06:06:03;8.67;;;5.60;;
26686;SDS011;14298;50.900;4.648;2023-10-31T06:08:31;5.53;;;5.13;;
26686;SDS011;14298;50.900;4.648;2023-10-31T06:10:59;4.93;;;4.43;;
26686;SDS011;14298;50.900;4.648;2023-10-31T06:13:27;5.67;;;5.23;;
26686;SDS011;14298;50.900;4.648;2023-10-31T06:15:57;5.57;;;5.17;;
26686;SDS011;14298;50.900;4.648;2023-10-31T06:18:28;4.70;;;4.30;;
26686;SDS011;14298;50.900;4.648;2023-10-31T06:20:56;4.37;;;4.07;;
26686;SDS011;14298;50.900;4.648;2023-10-31T06:23:24;3.97;;;3.67;;
26686;SDS011;14298;50.900;4.648;2023-10-31T06:25:52;4.63;;;4.23;;
26686;SDS011;14298;50.900;4.648;2023-10-31T06:28:20;4.33;;;3.93;;
26686;SDS011;14298;50.900;4.648;2023-10-31T06:30:48;4.30;;;3.80;;
26686;SDS011;14298;50.900;4.648;2023-10-31T06:33:16;5.57;;;4.17;;
26686;SDS011;14298;50.900;4.648;2023-10-31T06:35:44;3.47;;;3.20;;
26686;SDS011;14298;50.900;4.648;2023-10-31T06:38:12;8.57;;;4.47;;
26686;SDS011;14298;50.900;4.648;2023-10-31T06:40:40;3.43;;;3.00;;
26686;SDS011;14298;50.900;4.648;2023-10-31T06:43:08;5.53;;;4.07;;
26686;SDS011;14298;50.900;4.648;2023-10-31T06:45:36;4.23;;;3.83;;
26686;SDS011;14298;50.900;4.648;2023-10-31T06:48:04;3.50;;;3.27;;
26686;SDS011;14298;50.900;4.648;2023-10-31T06:50:34;4.10;;;3.70;;
26686;SDS011;14298;50.900;4.648;2023-10-31T06:53:02;2.63;;;2.43;;
26686;SDS011;14298;50.900;4.648;2023-10-31T06:55:30;5.33;;;4.20;;
26686;SDS011;14298;50.900;4.648;2023-10-31T06:57:58;7.37;;;2.80;;
26686;SDS011;14298;50.900;4.648;2023-10-31T07:00:26;3.13;;;2.60;;
26686;SDS011;14298;50.900;4.648;2023-10-31T07:02:54;3.00;;;2.80;;
26686;SDS011;14298;50.900;4.648;2023-10-31T07:05:22;3.07;;;2.87;;
26686;SDS011;14298;50.900;4.648;2023-10-31T07:07:50;3.80;;;3.37;;
26686;SDS011;14298;50.900;4.648;2023-10-31T07:10:18;2.70;;;2.43;;
26686;SDS011;14298;50.900;4.648;2023-10-31T07:12:46;4.13;;;3.23;;
26686;SDS011;14298;50.900;4.648;2023-10-31T07:15:14;11.30;;;3.33;;
26686;SDS011;14298;50.900;4.648;2023-10-31T07:17:42;5.33;;;3.83;;
26686;SDS011;14298;50.900;4.648;2023-10-31T07:20:10;4.23;;;2.93;;
26686;SDS011;14298;50.900;4.648;2023-10-31T07:22:38;6.37;;;4.30;;
26686;SDS011;14298;50.900;4.648;2023-10-31T07:25:07;2.50;;;2.30;;
26686;SDS011;14298;50.900;4.648;2023-10-31T07:27:35;5.07;;;3.80;;
26686;SDS011;14298;50.900;4.648;2023-10-31T07:30:03;2.77;;;2.47;;
26686;SDS011;14298;50.900;4.648;2023-10-31T07:32:33;2.80;;;2.53;;
26686;SDS011;14298;50.900;4.648;2023-10-31T07:35:01;3.33;;;2.80;;
26686;SDS011;14298;50.900;4.648;2023-10-31T07:37:29;3.10;;;2.33;;
26686;SDS011;14298;50.900;4.648;2023-10-31T07:39:57;5.33;;;3.00;;
26686;SDS011;14298;50.900;4.648;2023-10-31T07:42:25;4.00;;;2.17;;
26686;SDS011;14298;50.900;4.648;2023-10-31T07:47:40;5.13;;;2.73;;
26686;SDS011;14298;50.900;4.648;2023-10-31T07:50:08;2.13;;;1.97;;
26686;SDS011;14298;50.900;4.648;2023-10-31T07:52:37;2.07;;;1.97;;
26686;SDS011;14298;50.900;4.648;2023-10-31T07:55:05;3.37;;;2.43;;
26686;SDS011;14298;50.900;4.648;2023-10-31T07:57:33;3.93;;;2.97;;
26686;SDS011;14298;50.900;4.648;2023-10-31T08:00:01;3.17;;;2.33;;
26686;SDS011;14298;50.900;4.648;2023-10-31T08:02:30;3.20;;;2.53;;
26686;SDS011;14298;50.900;4.648;2023-10-31T08:04:58;4.30;;;2.37;;
26686;SDS011;14298;50.900;4.648;2023-10-31T08:07:26;4.93;;;2.77;;
26686;SDS011;14298;50.900;4.648;2023-10-31T08:09:55;2.60;;;2.13;;
26686;SDS011;14298;50.900;4.648;2023-10-31T08:12:24;2.20;;;1.90;;
26686;SDS011;14298;50.900;4.648;2023-10-31T08:14:51;2.10;;;1.97;;
26686;SDS011;14298;50.900;4.648;2023-10-31T08:17:19;1.73;;;1.63;;
26686;SDS011;14298;50.900;4.648;2023-10-31T08:19:47;2.10;;;1.90;;
26686;SDS011;14298;50.900;4.648;2023-10-31T08:22:15;2.33;;;1.70;;
26686;SDS011;14298;50.900;4.648;2023-10-31T08:24:43;2.10;;;1.20;;
26686;SDS011;14298;50.900;4.648;2023-10-31T08:27:11;3.97;;;1.90;;
26686;SDS011;14298;50.900;4.648;2023-10-31T08:29:40;4.67;;;1.97;;
26686;SDS011;14298;50.900;4.648;2023-10-31T08:32:08;1.77;;;1.67;;
26686;SDS011;14298;50.900;4.648;2023-10-31T08:34:36;1.67;;;1.47;;
26686;SDS011;14298;50.900;4.648;2023-10-31T08:37:04;2.27;;;1.63;;
26686;SDS011;14298;50.900;4.648;2023-10-31T08:39:32;2.30;;;1.93;;
26686;SDS011;14298;50.900;4.648;2023-10-31T08:42:00;1.90;;;1.80;;
26686;SDS011;14298;50.900;4.648;2023-10-31T08:44:28;3.10;;;1.87;;
26686;SDS011;14298;50.900;4.648;2023-10-31T08:46:56;2.10;;;1.30;;
26686;SDS011;14298;50.900;4.648;2023-10-31T08:49:24;0.83;;;0.83;;
26686;SDS011;14298;50.900;4.648;2023-10-31T08:51:52;1.23;;;1.00;;
26686;SDS011;14298;50.900;4.648;2023-10-31T08:54:20;1.53;;;1.33;;
26686;SDS011;14298;50.900;4.648;2023-10-31T08:56:48;4.73;;;2.20;;
26686;SDS011;14298;50.900;4.648;2023-10-31T08:59:16;1.50;;;1.40;;
26686;SDS011;14298;50.900;4.648;2023-10-31T09:01:44;1.53;;;1.43;;
26686;SDS011;14298;50.900;4.648;2023-10-31T09:04:12;1.70;;;1.60;;
26686;SDS011;14298;50.900;4.648;2023-10-31T09:06:40;2.63;;;1.63;;
26686;SDS011;14298;50.900;4.648;2023-10-31T09:09:08;2.27;;;1.07;;
26686;SDS011;14298;50.900;4.648;2023-10-31T09:11:37;1.60;;;1.43;;
26686;SDS011;14298;50.900;4.648;2023-10-31T09:14:05;1.70;;;1.50;;
26686;SDS011;14298;50.900;4.648;2023-10-31T09:16:33;1.83;;;1.70;;
26686;SDS011;14298;50.900;4.648;2023-10-31T09:19:01;1.47;;;1.37;;
26686;SDS011;14298;50.900;4.648;2023-10-31T09:21:29;1.73;;;1.40;;
26686;SDS011;14298;50.900;4.648;2023-10-31T09:23:57;1.63;;;1.53;;
26686;SDS011;14298;50.900;4.648;2023-10-31T09:26:25;2.90;;;1.53;;
26686;SDS011;14298;50.900;4.648;2023-10-31T09:28:53;1.17;;;1.07;;
26686;SDS011;14298;50.900;4.648;2023-10-31T09:31:21;1.03;;;0.93;;
26686;SDS011;14298;50.900;4.648;2023-10-31T09:33:49;1.00;;;1.00;;
26686;SDS011;14298;50.900;4.648;2023-10-31T09:36:19;1.40;;;1.30;;
26686;SDS011;14298;50.900;4.648;2023-10-31T09:38:47;11.10;;;1.67;;
26686;SDS011;14298;50.900;4.648;2023-10-31T09:41:15;1.10;;;1.10;;
26686;SDS011;14298;50.900;4.648;2023-10-31T09:43:43;1.73;;;1.47;;
26686;SDS011;14298;50.900;4.648;2023-10-31T09:46:11;1.77;;;1.60;;
26686;SDS011;14298;50.900;4.648;2023-10-31T09:48:39;1.10;;;1.07;;
26686;SDS011;14298;50.900;4.648;2023-10-31T09:51:07;1.37;;;1.20;;
26686;SDS011;14298;50.900;4.648;2023-10-31T09:53:37;1.33;;;1.23;;
26686;SDS011;14298;50.900;4.648;2023-10-31T09:56:05;1.10;;;1.00;;
26686;SDS011;14298;50.900;4.648;2023-10-31T09:58:34;1.53;;;1.20;;
26686;SDS011;14298;50.900;4.648;2023-10-31T10:01:02;7.10;;;1.90;;
26686;SDS011;14298;50.900;4.648;2023-10-31T10:03:31;1.90;;;1.73;;
26686;SDS011;14298;50.900;4.648;2023-10-31T10:05:59;1.37;;;1.20;;
26686;SDS011;14298;50.900;4.648;2023-10-31T10:08:27;4.20;;;2.03;;
26686;SDS011;14298;50.900;4.648;2023-10-31T10:10:55;1.43;;;1.33;;
26686;SDS011;14298;50.900;4.648;2023-10-31T10:13:23;1.33;;;1.23;;
26686;SDS011;14298;50.900;4.648;2023-10-31T10:15:51;1.03;;;1.00;;
26686;SDS011;14298;50.900;4.648;2023-10-31T10:18:24;4.37;;;1.73;;
26686;SDS011;14298;50.900;4.648;2023-10-31T10:20:56;1.70;;;1.60;;
26686;SDS011;14298;50.900;4.648;2023-10-31T10:23:25;1.47;;;1.30;;
26686;SDS011;14298;50.900;4.648;2023-10-31T10:25:53;1.83;;;1.30;;
26686;SDS011;14298;50.900;4.648;2023-10-31T10:28:22;3.13;;;0.73;;
26686;SDS011;14298;50.900;4.648;2023-10-31T10:30:52;1.57;;;1.20;;
26686;SDS011;14298;50.900;4.648;2023-10-31T10:33:22;3.30;;;1.60;;
26686;SDS011;14298;50.900;4.648;2023-10-31T10:35:50;2.47;;;0.77;;
26686;SDS011;14298;50.900;4.648;2023-10-31T10:38:18;1.07;;;0.97;;
26686;SDS011;14298;50.900;4.648;2023-10-31T10:43:36;1.07;;;1.00;;
26686;SDS011;14298;50.900;4.648;2023-10-31T10:46:04;3.73;;;1.33;;
26686;SDS011;14298;50.900;4.648;2023-10-31T10:48:33;1.33;;;1.23;;
26686;SDS011;14298;50.900;4.648;2023-10-31T10:51:05;1.07;;;0.97;;
26686;SDS011;14298;50.900;4.648;2023-10-31T10:54:08;0.73;;;0.73;;
26686;SDS011;14298;50.900;4.648;2023-10-31T10:56:16;2.77;;;0.90;;
26686;SDS011;14298;50.900;4.648;2023-10-31T10:58:51;1.50;;;1.40;;
26686;SDS011;14298;50.900;4.648;2023-10-31T11:01:20;2.07;;;1.10;;
26686;SDS011;14298;50.900;4.648;2023-10-31T11:03:49;1.50;;;1.40;;
26686;SDS011;14298;50.900;4.648;2023-10-31T11:06:17;2.70;;;1.50;;
26686;SDS011;14298;50.900;4.648;2023-10-31T11:08:46;4.93;;;0.87;;
26686;SDS011;14298;50.900;4.648;2023-10-31T11:11:14;0.73;;;0.67;;
26686;SDS011;14298;50.900;4.648;2023-10-31T11:13:44;2.73;;;1.30;;
26686;SDS011;14298;50.900;4.648;2023-10-31T11:16:17;3.13;;;1.27;;
26686;SDS011;14298;50.900;4.648;2023-10-31T11:18:42;9.10;;;1.53;;
26686;SDS011;14298;50.900;4.648;2023-10-31T11:21:10;1.33;;;0.70;;
26686;SDS011;14298;50.900;4.648;2023-10-31T11:23:38;2.07;;;1.47;;
26686;SDS011;14298;50.900;4.648;2023-10-31T11:26:07;1.53;;;1.43;;
26686;SDS011;14298;50.900;4.648;2023-10-31T11:28:36;1.23;;;1.10;;
26686;SDS011;14298;50.900;4.648;2023-10-31T11:31:04;0.60;;;0.60;;
26686;SDS011;14298;50.900;4.648;2023-10-31T11:33:34;1.73;;;1.63;;
26686;SDS011;14298;50.900;4.648;2023-10-31T11:36:04;0.73;;;0.73;;
26686;SDS011;14298;50.900;4.648;2023-10-31T11:38:33;1.67;;;1.47;;
26686;SDS011;14298;50.900;4.648;2023-10-31T11:41:02;1.47;;;1.37;;
26686;SDS011;14298;50.900;4.648;2023-10-31T11:46:22;2.53;;;1.93;;
26686;SDS011;14298;50.900;4.648;2023-10-31T11:48:49;2.87;;;1.53;;
26686;SDS011;14298;50.900;4.648;2023-10-31T11:51:20;5.53;;;2.00;;
26686;SDS011;14298;50.900;4.648;2023-10-31T11:53:48;1.87;;;1.77;;
26686;SDS011;14298;50.900;4.648;2023-10-31T11:56:16;2.80;;;1.47;;
26686;SDS011;14298;50.900;4.648;2023-10-31T11:58:44;1.60;;;1.50;;
26686;SDS011;14298;50.900;4.648;2023-10-31T12:01:14;1.93;;;1.30;;
26686;SDS011;14298;50.900;4.648;2023-10-31T12:03:42;1.20;;;1.10;;
26686;SDS011;14298;50.900;4.648;2023-10-31T12:06:12;0.60;;;0.60;;
26686;SDS011;14298;50.900;4.648;2023-10-31T12:08:41;1.57;;;1.43;;
26686;SDS011;14298;50.900;4.648;2023-10-31T12:11:16;1.93;;;1.70;;
26686;SDS011;14298;50.900;4.648;2023-10-31T12:16:30;1.53;;;1.33;;
26686;SDS011;14298;50.900;4.648;2023-10-31T12:18:58;1.33;;;1.23;;
26686;SDS011;14298;50.900;4.648;2023-10-31T12:21:36;4.00;;;2.10;;
26686;SDS011;14298;50.900;4.648;2023-10-31T12:24:10;1.50;;;1.40;;
26686;SDS011;14298;50.900;4.648;2023-10-31T12:26:34;1.13;;;1.07;;
26686;SDS011;14298;50.900;4.648;2023-10-31T12:29:06;2.03;;;1.67;;
26686;SDS011;14298;50.900;4.648;2023-10-31T12:31:38;3.47;;;1.33;;
26686;SDS011;14298;50.900;4.648;2023-10-31T12:34:05;2.13;;;1.53;;
26686;SDS011;14298;50.900;4.648;2023-10-31T12:36:34;3.10;;;0.93;;
26686;SDS011;14298;50.900;4.648;2023-10-31T12:39:03;4.23;;;1.47;;
26686;SDS011;14298;50.900;4.648;2023-10-31T12:41:33;1.53;;;1.43;;
26686;SDS011;14298;50.900;4.648;2023-10-31T12:44:01;1.60;;;1.50;;
26686;SDS011;14298;50.900;4.648;2023-10-31T12:46:31;1.77;;;1.27;;
26686;SDS011;14298;50.900;4.648;2023-10-31T12:49:01;2.93;;;2.00;;
26686;SDS011;14298;50.900;4.648;2023-10-31T12:51:29;1.80;;;1.23;;
26686;SDS011;14298;50.900;4.648;2023-10-31T12:53:57;1.13;;;1.03;;
26686;SDS011;14298;50.900;4.648;2023-10-31T12:56:35;1.13;;;1.03;;
26686;SDS011;14298;50.900;4.648;2023-10-31T12:59:09;0.97;;;0.97;;
26686;SDS011;14298;50.900;4.648;2023-10-31T13:01:43;1.13;;;0.87;;
26686;SDS011;14298;50.900;4.648;2023-10-31T13:04:08;2.53;;;1.20;;
26686;SDS011;14298;50.900;4.648;2023-10-31T13:06:36;2.73;;;1.23;;
26686;SDS011;14298;50.900;4.648;2023-10-31T13:09:05;1.57;;;1.20;;
26686;SDS011;14298;50.900;4.648;2023-10-31T13:11:34;2.67;;;1.37;;
26686;SDS011;14298;50.900;4.648;2023-10-31T13:14:02;2.40;;;1.27;;
26686;SDS011;14298;50.900;4.648;2023-10-31T13:16:30;0.80;;;0.80;;
26686;SDS011;14298;50.900;4.648;2023-10-31T13:19:00;1.60;;;1.47;;
26686;SDS011;14298;50.900;4.648;2023-10-31T13:21:28;1.13;;;0.90;;
26686;SDS011;14298;50.900;4.648;2023-10-31T13:23:56;1.03;;;1.03;;
26686;SDS011;14298;50.900;4.648;2023-10-31T13:26:24;0.73;;;0.73;;
26686;SDS011;14298;50.900;4.648;2023-10-31T13:28:52;0.63;;;0.63;;
26686;SDS011;14298;50.900;4.648;2023-10-31T13:31:20;1.30;;;1.20;;
26686;SDS011;14298;50.900;4.648;2023-10-31T13:33:48;1.20;;;1.10;;
26686;SDS011;14298;50.900;4.648;2023-10-31T13:36:16;0.70;;;0.70;;
26686;SDS011;14298;50.900;4.648;2023-10-31T13:38:45;1.30;;;1.20;;
26686;SDS011;14298;50.900;4.648;2023-10-31T13:41:14;0.97;;;0.80;;
26686;SDS011;14298;50.900;4.648;2023-10-31T13:43:42;1.20;;;1.10;;
26686;SDS011;14298;50.900;4.648;2023-10-31T13:46:10;2.37;;;1.07;;
26686;SDS011;14298;50.900;4.648;2023-10-31T13:48:38;0.90;;;0.90;;
26686;SDS011;14298;50.900;4.648;2023-10-31T13:51:06;0.50;;;0.50;;
26686;SDS011;14298;50.900;4.648;2023-10-31T13:53:34;0.87;;;0.80;;
26686;SDS011;14298;50.900;4.648;2023-10-31T13:56:02;1.10;;;1.03;;
26686;SDS011;14298;50.900;4.648;2023-10-31T13:58:30;1.33;;;1.23;;
26686;SDS011;14298;50.900;4.648;2023-10-31T14:00:58;1.67;;;1.50;;
26686;SDS011;14298;50.900;4.648;2023-10-31T14:03:26;0.87;;;0.57;;
26686;SDS011;14298;50.900;4.648;2023-10-31T14:05:54;2.10;;;1.17;;
26686;SDS011;14298;50.900;4.648;2023-10-31T14:08:22;2.43;;;1.30;;
26686;SDS011;14298;50.900;4.648;2023-10-31T14:10:50;1.43;;;1.23;;
26686;SDS011;14298;50.900;4.648;2023-10-31T14:13:18;3.23;;;1.87;;
26686;SDS011;14298;50.900;4.648;2023-10-31T14:15:47;2.53;;;1.70;;
26686;SDS011;14298;50.900;4.648;2023-10-31T14:18:15;2.27;;;1.77;;
26686;SDS011;14298;50.900;4.648;2023-10-31T14:20:43;5.50;;;3.37;;
26686;SDS011;14298;50.900;4.648;2023-10-31T14:23:11;2.33;;;2.13;;
26686;SDS011;14298;50.900;4.648;2023-10-31T14:25:39;1.50;;;1.40;;
26686;SDS011;14298;50.900;4.648;2023-10-31T14:28:08;2.17;;;1.50;;
26686;SDS011;14298;50.900;4.648;2023-10-31T14:30:36;2.57;;;1.40;;
26686;SDS011;14298;50.900;4.648;2023-10-31T14:33:04;2.03;;;1.50;;
26686;SDS011;14298;50.900;4.648;2023-10-31T14:35:32;3.23;;;1.70;;
26686;SDS011;14298;50.900;4.648;2023-10-31T14:38:01;1.90;;;1.57;;
26686;SDS011;14298;50.900;4.648;2023-10-31T14:40:29;1.90;;;1.63;;
26686;SDS011;14298;50.900;4.648;2023-10-31T14:42:57;1.40;;;1.30;;
26686;SDS011;14298;50.900;4.648;2023-10-31T14:45:25;2.27;;;2.07;;
26686;SDS011;14298;50.900;4.648;2023-10-31T14:47:53;3.17;;;1.83;;
26686;SDS011;14298;50.900;4.648;2023-10-31T14:50:21;2.80;;;2.43;;
26686;SDS011;14298;50.900;4.648;2023-10-31T14:52:49;2.00;;;1.90;;
26686;SDS011;14298;50.900;4.648;2023-10-31T14:55:17;4.00;;;1.80;;
26686;SDS011;14298;50.900;4.648;2023-10-31T14:57:45;2.10;;;1.50;;
26686;SDS011;14298;50.900;4.648;2023-10-31T15:00:13;2.33;;;2.17;;
26686;SDS011;14298;50.900;4.648;2023-10-31T15:02:42;1.70;;;1.60;;
26686;SDS011;14298;50.900;4.648;2023-10-31T15:05:10;2.80;;;2.03;;
26686;SDS011;14298;50.900;4.648;2023-10-31T15:07:38;2.20;;;1.87;;